Time;durP1;ratioP1;P1;durP2;ratioP2;P2;SDS_P1;SDS_P2;PMS_P1;PMS_P2;Temp;Humidity;BMP_temperature;BMP_pressure;BME280_temperature;BME280_humidity;BME280_pressure;Samples;Min_cycle;Max_cycle;Signal;HPM_P1;HPM_P2
2022/09/10 00:00:37;;;;;;;5.03;2.78;;;16.30;99.90;;;;;;5066596;28;20021;-37
2022/09/10 00:03:04;;;;;;;2.90;2.20;;;16.30;99.90;;;;;;5066590;28;20504;-38
2022/09/10 00:05:30;;;;;;;4.57;2.38;;;16.30;99.90;;;;;;5065946;28;20074;-37
2022/09/10 00:07:55;;;;;;;4.53;2.30;;;16.30;99.90;;;;;;5066160;28;20431;-39
2022/09/10 00:10:21;;;;;;;4.05;2.30;;;16.30;99.90;;;;;;5066356;28;20104;-38
2022/09/10 00:12:47;;;;;;;5.57;3.10;;;16.30;99.90;;;;;;5065837;28;20032;-37
2022/09/10 00:15:16;;;;;;;6.93;3.00;;;16.30;99.90;;;;;;5065283;28;20028;-38
2022/09/10 00:17:42;;;;;;;5.55;2.75;;;16.30;99.90;;;;;;5064680;28;20476;-37
2022/09/10 00:20:09;;;;;;;5.50;3.03;;;16.30;99.90;;;;;;5066617;28;20032;-37
2022/09/10 00:22:35;;;;;;;5.20;2.15;;;16.30;99.90;;;;;;5065907;28;20025;-37
2022/09/10 00:25:00;;;;;;;9.10;2.40;;;16.30;99.90;;;;;;5066139;28;20047;-37
2022/09/10 00:27:26;;;;;;;4.35;2.40;;;16.30;99.90;;;;;;5066133;28;20030;-38
2022/09/10 00:29:53;;;;;;;4.47;2.70;;;16.30;99.90;;;;;;5066884;28;20035;-37
2022/09/10 00:32:20;;;;;;;5.80;2.78;;;16.30;99.90;;;;;;5065888;28;20024;-38
2022/09/10 00:34:46;;;;;;;4.13;2.60;;;16.30;99.90;;;;;;5065298;28;20127;-39
2022/09/10 00:37:13;;;;;;;5.95;3.55;;;16.30;99.90;;;;;;5066293;28;20020;-37
2022/09/10 00:39:39;;;;;;;3.47;2.97;;;16.40;99.90;;;;;;5066019;28;20392;-40
2022/09/10 00:42:04;;;;;;;5.38;2.75;;;16.30;99.90;;;;;;5066035;28;20066;-38
2022/09/10 00:44:39;;;;;;;5.15;2.65;;;16.40;99.90;;;;;;5066549;28;20629;-37
2022/09/10 00:47:15;;;;;;;6.30;2.70;;;16.40;99.90;;;;;;5065281;28;20035;-37
2022/09/10 00:49:52;;;;;;;3.55;2.92;;;16.40;99.90;;;;;;5065900;28;20132;-38
2022/09/10 00:52:18;;;;;;;3.25;3.00;;;16.40;99.90;;;;;;5066826;28;20020;-37
2022/09/10 00:54:46;;;;;;;4.28;3.30;;;16.40;99.90;;;;;;5065146;28;20033;-38
2022/09/10 00:57:16;;;;;;;6.80;4.45;;;16.40;99.90;;;;;;5066219;28;20040;-38
2022/09/10 00:59:46;;;;;;;7.00;3.90;;;16.40;99.90;;;;;;5065479;28;20115;-38
2022/09/10 01:02:13;;;;;;;5.38;3.97;;;16.30;99.90;;;;;;5066903;28;20025;-39
2022/09/10 01:04:39;;;;;;;7.97;4.35;;;16.30;99.90;;;;;;5066188;28;20350;-38
2022/09/10 01:07:08;;;;;;;7.30;5.10;;;16.30;99.90;;;;;;5065470;28;20499;-38
2022/09/10 01:09:35;;;;;;;5.22;3.88;;;16.30;99.90;;;;;;5062771;28;20098;-37
2022/09/10 01:12:19;;;;;;;7.38;5.35;;;16.30;99.90;;;;;;5065339;28;20012;-38
2022/09/10 01:15:06;;;;;;;6.05;4.47;;;16.30;99.90;;;;;;5062115;28;20032;-38
2022/09/10 01:18:03;;;;;;;8.23;5.60;;;16.30;99.90;;;;;;5066054;28;20028;-38
2022/09/10 01:20:46;;;;;;;4.93;4.45;;;16.30;99.90;;;;;;5055611;28;20062;-37
2022/09/10 01:23:40;;;;;;;8.27;5.50;;;16.30;99.90;;;;;;5065990;28;20031;-37
2022/09/10 01:26:35;;;;;;;7.43;5.30;;;16.30;99.90;;;;;;5066108;28;20388;-39
2022/09/10 01:29:04;;;;;;;7.78;6.25;;;16.30;99.90;;;;;;5064934;28;20072;-39
2022/09/10 01:31:49;;;;;;;9.18;6.13;;;16.30;99.90;;;;;;5065641;28;20108;-38
2022/09/10 01:34:28;;;;;;;8.43;5.80;;;16.30;99.90;;;;;;5065589;28;20154;-38
2022/09/10 01:37:01;;;;;;;9.77;6.25;;;16.30;99.90;;;;;;5064800;28;20357;-39
2022/09/10 01:39:26;;;;;;;;;;;16.30;99.90;;;;;;5065435;28;20069;-37
2022/09/10 01:41:53;;;;;;;11.25;7.53;;;16.40;99.90;;;;;;5064229;28;20290;-36
2022/09/10 01:44:39;;;;;;;9.60;6.35;;;16.30;99.90;;;;;;5065615;28;20409;-37
2022/09/10 01:47:26;;;;;;;9.95;7.97;;;16.30;99.90;;;;;;5065034;28;20033;-37
2022/09/10 01:50:20;;;;;;;7.40;6.68;;;16.40;99.90;;;;;;5063467;28;20040;-38
2022/09/10 01:52:56;;;;;;;7.78;6.90;;;16.40;99.90;;;;;;5044703;28;20399;-40
2022/09/10 01:55:33;;;;;;;10.32;7.95;;;16.30;99.90;;;;;;5061229;28;20079;-38
2022/09/10 01:58:15;;;;;;;7.90;7.10;;;16.40;99.90;;;;;;5044168;28;20037;-38
2022/09/10 02:00:51;;;;;;;9.45;8.20;;;16.40;99.90;;;;;;5061688;28;20503;-37
2022/09/10 02:03:21;;;;;;;12.00;8.60;;;16.40;99.90;;;;;;5064790;28;20028;-37
2022/09/10 02:05:51;;;;;;;8.82;7.70;;;16.40;99.90;;;;;;5063927;28;20468;-38
2022/09/10 02:08:22;;;;;;;10.85;8.10;;;16.40;99.90;;;;;;5064940;28;20566;-37
2022/09/10 02:10:59;;;;;;;9.35;8.40;;;16.40;99.90;;;;;;5064083;28;20028;-38
2022/09/10 02:13:28;;;;;;;13.52;10.32;;;16.40;99.90;;;;;;5057927;28;20820;-37
2022/09/10 02:15:55;;;;;;;11.23;9.00;;;16.40;99.90;;;;;;5058561;28;20464;-38
2022/09/10 02:18:22;;;;;;;10.45;8.50;;;16.40;99.90;;;;;;5062917;28;20123;-38
2022/09/10 02:20:50;;;;;;;10.48;8.50;;;16.40;99.90;;;;;;5064980;28;20384;-37
2022/09/10 02:23:21;;;;;;;10.63;7.90;;;16.40;99.90;;;;;;5064968;28;20060;-38
2022/09/10 02:25:48;;;;;;;8.65;7.57;;;16.40;99.90;;;;;;5063271;28;20017;-37
2022/09/10 02:28:13;;;;;;;10.27;7.38;;;16.40;99.90;;;;;;5065167;28;20476;-38
2022/09/10 02:30:39;;;;;;;8.30;6.60;;;16.40;99.90;;;;;;5064251;28;20020;-38
2022/09/10 02:33:05;;;;;;;7.15;5.95;;;16.40;99.90;;;;;;5064410;28;20066;-37
2022/09/10 02:35:30;;;;;;;9.18;7.28;;;16.40;99.90;;;;;;5064495;28;20021;-39
2022/09/10 02:37:57;;;;;;;10.20;8.55;;;16.40;99.90;;;;;;5064547;28;20028;-38
2022/09/10 02:40:23;;;;;;;7.90;6.78;;;16.40;99.90;;;;;;5068419;28;20060;-38
2022/09/10 02:42:49;;;;;;;7.38;6.47;;;16.40;99.90;;;;;;5068430;28;20060;-38
2022/09/10 02:45:14;;;;;;;9.68;7.55;;;16.50;99.90;;;;;;5068715;28;20063;-37
2022/09/10 02:47:40;;;;;;;10.85;7.82;;;16.40;99.90;;;;;;5068479;28;20028;-38
2022/09/10 02:50:07;;;;;;;10.45;7.90;;;16.40;99.90;;;;;;5068232;28;20068;-38
2022/09/10 02:52:33;;;;;;;7.22;6.40;;;16.40;99.90;;;;;;5067559;28;20021;-36
2022/09/10 02:54:59;;;;;;;12.10;8.15;;;16.50;99.90;;;;;;5068549;28;20071;-38
2022/09/10 02:57:25;;;;;;;8.32;6.80;;;16.40;99.90;;;;;;5068091;28;20072;-39
2022/09/10 02:59:52;;;;;;;11.90;8.23;;;16.50;99.90;;;;;;5067815;28;20035;-37
2022/09/10 03:02:19;;;;;;;10.10;7.47;;;16.50;99.90;;;;;;5068075;28;20016;-39
2022/09/10 03:04:45;;;;;;;7.40;6.70;;;16.40;99.90;;;;;;5068333;28;20033;-37
2022/09/10 03:07:10;;;;;;;6.75;5.85;;;16.50;99.90;;;;;;5067424;28;20023;-37
2022/09/10 03:09:39;;;;;;;7.35;6.10;;;16.50;99.90;;;;;;5067747;28;20036;-38
2022/09/10 03:12:05;;;;;;;8.90;7.35;;;16.40;99.90;;;;;;5067969;28;20533;-37
2022/09/10 03:14:31;;;;;;;8.50;7.60;;;16.40;99.90;;;;;;5067274;28;20111;-37
2022/09/10 03:16:57;;;;;;;8.13;7.10;;;16.40;99.90;;;;;;5067968;28;20364;-37
2022/09/10 03:19:23;;;;;;;6.63;5.95;;;16.40;99.90;;;;;;5068421;28;20498;-37
2022/09/10 03:21:48;;;;;;;9.05;8.02;;;16.40;99.90;;;;;;5066772;28;20535;-38
2022/09/10 03:24:14;;;;;;;8.98;7.72;;;16.50;99.90;;;;;;5068253;28;20190;-39
2022/09/10 03:26:39;;;;;;;9.77;8.27;;;16.40;99.90;;;;;;5067460;28;20460;-37
2022/09/10 03:29:05;;;;;;;8.20;7.40;;;16.50;99.90;;;;;;5067596;28;20040;-39
2022/09/10 03:31:30;;;;;;;6.82;6.15;;;16.50;99.90;;;;;;5067550;28;20024;-38
2022/09/10 03:34:00;;;;;;;9.90;8.60;;;16.50;99.90;;;;;;5067620;28;20477;-39
2022/09/10 03:36:29;;;;;;;7.82;7.07;;;16.50;99.90;;;;;;5066536;28;20035;-37
2022/09/10 03:38:54;;;;;;;7.63;7.00;;;16.50;99.90;;;;;;5066911;28;20024;-37
2022/09/10 03:41:20;;;;;;;7.55;6.85;;;16.50;99.90;;;;;;5067703;28;20024;-36
2022/09/10 03:43:45;;;;;;;9.70;8.13;;;16.50;99.90;;;;;;5066103;28;20032;-37
2022/09/10 03:46:11;;;;;;;6.45;5.88;;;16.50;99.90;;;;;;5067551;28;20117;-39
2022/09/10 03:48:39;;;;;;;6.53;5.47;;;16.50;99.90;;;;;;5066278;28;20040;-37
2022/09/10 03:51:05;;;;;;;8.82;6.20;;;16.50;99.90;;;;;;5066768;28;20020;-38
2022/09/10 03:53:30;;;;;;;9.20;6.68;;;16.50;99.90;;;;;;5066853;28;20094;-38
2022/09/10 03:55:57;;;;;;;12.38;7.93;;;16.50;99.90;;;;;;5066432;28;20048;-37
2022/09/10 03:58:23;;;;;;;9.02;7.82;;;16.50;99.90;;;;;;5066732;28;20059;-38
2022/09/10 04:00:49;;;;;;;11.55;7.93;;;16.50;99.90;;;;;;5067170;28;20033;-37
2022/09/10 04:03:15;;;;;;;9.90;8.18;;;16.50;99.90;;;;;;5065990;28;20025;-37
2022/09/10 04:05:44;;;;;;;6.97;6.25;;;16.50;99.90;;;;;;5067173;28;20379;-39
2022/09/10 04:08:11;;;;;;;8.15;6.85;;;16.50;99.90;;;;;;5067692;28;20036;-45
2022/09/10 04:10:38;;;;;;;6.43;5.28;;;16.50;99.90;;;;;;5065604;28;20380;-38
2022/09/10 04:13:03;;;;;;;7.80;7.00;;;16.50;99.90;;;;;;5066390;28;20531;-37
2022/09/10 04:15:29;;;;;;;7.38;6.68;;;16.50;99.90;;;;;;5065975;28;20064;-37
2022/09/10 04:17:55;;;;;;;8.05;7.25;;;16.50;99.90;;;;;;5065467;28;20036;-37
2022/09/10 04:20:22;;;;;;;12.07;8.77;;;16.50;99.90;;;;;;5066355;28;20032;-37
2022/09/10 04:22:48;;;;;;;9.32;8.00;;;16.50;99.90;;;;;;5066271;28;20078;-39
2022/09/10 04:25:14;;;;;;;8.93;8.02;;;16.50;99.90;;;;;;5065895;28;20017;-38
2022/09/10 04:27:41;;;;;;;10.27;8.45;;;16.50;99.90;;;;;;5065722;28;20077;-38
2022/09/10 04:30:07;;;;;;;8.23;7.30;;;16.50;99.90;;;;;;5065850;28;20025;-38
2022/09/10 04:32:33;;;;;;;9.57;7.55;;;16.50;99.90;;;;;;5065688;28;20032;-38
2022/09/10 04:35:01;;;;;;;7.68;6.82;;;16.60;99.90;;;;;;5066335;28;20518;-38
2022/09/10 04:37:27;;;;;;;9.15;7.65;;;16.60;99.90;;;;;;5066727;28;20728;-38
2022/09/10 04:39:53;;;;;;;9.10;7.65;;;16.60;99.90;;;;;;5065385;28;20832;-37
2022/09/10 04:42:19;;;;;;;7.07;6.25;;;16.60;99.90;;;;;;5066758;28;20028;-37
2022/09/10 04:44:45;;;;;;;7.90;7.20;;;16.60;99.90;;;;;;5065046;28;20063;-37
2022/09/10 04:47:11;;;;;;;8.07;7.28;;;16.60;99.90;;;;;;5066088;28;20536;-38
2022/09/10 04:49:36;;;;;;;8.63;7.65;;;16.60;99.90;;;;;;5065760;28;20036;-38
2022/09/10 04:52:05;;;;;;;7.30;6.60;;;16.60;99.90;;;;;;5065783;28;20132;-37
2022/09/10 04:54:32;;;;;;;9.88;7.30;;;16.60;99.90;;;;;;5066185;28;20028;-39
2022/09/10 04:56:59;;;;;;;7.82;7.03;;;16.60;99.90;;;;;;5064524;28;20155;-38
2022/09/10 04:59:26;;;;;;;9.05;8.20;;;16.60;99.90;;;;;;5065892;28;20103;-37
2022/09/10 05:01:52;;;;;;;9.82;8.75;;;16.60;99.90;;;;;;5064767;28;20460;-38
2022/09/10 05:04:18;;;;;;;8.88;7.03;;;16.60;99.90;;;;;;5066199;28;20097;-37
2022/09/10 05:06:43;;;;;;;8.65;7.38;;;16.60;99.90;;;;;;5064705;28;20475;-38
2022/09/10 05:09:10;;;;;;;7.75;6.95;;;16.60;99.90;;;;;;5066401;28;20515;-38
2022/09/10 05:11:36;;;;;;;9.93;8.23;;;16.60;99.90;;;;;;5065806;28;20029;-39
2022/09/10 05:14:03;;;;;;;9.60;7.60;;;16.60;99.90;;;;;;5064525;28;20538;-38
2022/09/10 05:16:28;;;;;;;10.30;7.82;;;16.60;99.90;;;;;;5064969;28;20388;-38
2022/09/10 05:18:55;;;;;;;7.70;6.85;;;16.60;99.90;;;;;;5065505;28;20040;-38
2022/09/10 05:21:21;;;;;;;6.88;6.18;;;16.60;99.90;;;;;;5064534;28;20032;-37
2022/09/10 05:23:47;;;;;;;6.90;6.03;;;16.70;99.90;;;;;;5064962;28;20033;-39
2022/09/10 05:26:12;;;;;;;6.43;5.82;;;16.70;99.90;;;;;;5064724;28;20414;-38
2022/09/10 05:28:38;;;;;;;8.05;7.25;;;16.70;99.90;;;;;;5063588;28;20076;-39
2022/09/10 05:31:08;;;;;;;6.20;5.60;;;16.70;99.90;;;;;;5065179;28;20021;-38
2022/09/10 05:33:34;;;;;;;6.78;6.07;;;16.80;99.90;;;;;;5065229;28;20040;-38
2022/09/10 05:36:00;;;;;;;7.22;6.53;;;16.80;99.90;;;;;;5065166;28;20048;-37
2022/09/10 05:38:25;;;;;;;8.65;7.55;;;16.70;99.90;;;;;;5064521;28;20082;-36
2022/09/10 05:40:51;;;;;;;6.97;6.38;;;16.70;99.90;;;;;;5064707;28;20020;-38
2022/09/10 05:43:16;;;;;;;6.93;6.07;;;16.70;99.90;;;;;;5064045;28;20090;-37
2022/09/10 05:45:42;;;;;;;9.00;7.15;;;16.80;99.90;;;;;;5064578;28;20020;-37
2022/09/10 05:48:07;;;;;;;6.22;5.60;;;16.70;99.90;;;;;;5063725;28;20027;-38
2022/09/10 05:50:33;;;;;;;8.70;7.90;;;16.80;99.90;;;;;;5064459;28;20468;-38
2022/09/10 05:53:00;;;;;;;6.93;6.22;;;16.70;99.90;;;;;;5063708;28;20505;-38
2022/09/10 05:55:25;;;;;;;7.45;6.68;;;16.70;99.90;;;;;;5063807;28;20044;-36
2022/09/10 05:57:51;;;;;;;5.72;5.20;;;16.70;99.90;;;;;;5064100;28;20024;-37
2022/09/10 06:00:16;;;;;;;6.47;5.88;;;16.70;99.90;;;;;;5064527;28;20464;-37
2022/09/10 06:02:44;;;;;;;6.00;5.50;;;16.70;99.90;;;;;;5063863;28;20036;-36
2022/09/10 06:05:09;;;;;;;7.40;5.07;;;16.70;99.90;;;;;;5064666;28;20050;-38
2022/09/10 06:07:35;;;;;;;6.32;5.72;;;16.60;99.90;;;;;;5064183;28;20157;-38
2022/09/10 06:10:00;;;;;;;4.80;4.40;;;16.60;99.90;;;;;;5064050;28;20123;-37
2022/09/10 06:12:26;;;;;;;7.55;5.93;;;16.70;99.90;;;;;;5064468;28;20020;-39
2022/09/10 06:14:52;;;;;;;5.90;5.07;;;16.70;99.90;;;;;;5063832;28;20029;-38
2022/09/10 06:17:18;;;;;;;5.55;5.05;;;16.70;99.90;;;;;;5064479;28;20107;-36
2022/09/10 06:19:44;;;;;;;5.05;4.65;;;16.70;99.90;;;;;;5062757;28;20479;-38
2022/09/10 06:22:12;;;;;;;4.82;4.35;;;16.60;99.90;;;;;;5064443;28;20400;-37
2022/09/10 06:24:38;;;;;;;6.18;5.28;;;16.60;99.90;;;;;;5063637;28;20129;-37
2022/09/10 06:27:04;;;;;;;5.47;4.97;;;16.60;99.90;;;;;;5064651;28;20427;-37
2022/09/10 06:29:31;;;;;;;5.22;4.72;;;16.50;99.90;;;;;;5064766;28;20111;-38
2022/09/10 06:31:58;;;;;;;5.03;4.53;;;16.60;99.90;;;;;;5063493;28;20112;-39
2022/09/10 06:34:24;;;;;;;5.05;4.53;;;16.60;99.90;;;;;;5064177;28;20024;-38
2022/09/10 06:36:50;;;;;;;4.60;4.20;;;16.60;99.90;;;;;;5061618;28;20074;-39
2022/09/10 06:39:16;;;;;;;3.65;3.35;;;16.50;99.90;;;;;;5063086;28;20384;-38
2022/09/10 06:41:42;;;;;;;3.38;3.00;;;16.50;99.90;;;;;;5062265;28;20541;-38
2022/09/10 06:44:09;;;;;;;3.08;2.88;;;16.50;99.90;;;;;;5063134;28;20062;-37
2022/09/10 06:46:35;;;;;;;4.70;3.78;;;16.50;99.90;;;;;;5062643;28;20488;-38
2022/09/10 06:49:02;;;;;;;4.60;4.18;;;16.50;99.90;;;;;;5063178;28;20060;-38
2022/09/10 06:51:31;;;;;;;6.32;5.00;;;16.50;99.90;;;;;;5062724;28;20024;-39
2022/09/10 06:53:57;;;;;;;4.63;4.22;;;16.40;99.90;;;;;;5063071;28;20025;-38
2022/09/10 06:56:23;;;;;;;4.78;4.38;;;16.40;99.90;;;;;;5062838;28;20110;-39
2022/09/10 06:58:49;;;;;;;6.35;5.30;;;16.40;99.90;;;;;;5062455;28;20025;-38
2022/09/10 07:01:16;;;;;;;6.03;5.40;;;16.40;99.90;;;;;;5063639;28;20017;-39
2022/09/10 07:03:42;;;;;;;8.25;5.82;;;16.40;99.90;;;;;;5063151;28;20042;-37
2022/09/10 07:06:12;;;;;;;11.30;8.50;;;16.40;99.90;;;;;;5061782;28;20055;-37
2022/09/10 07:08:38;;;;;;;9.82;8.77;;;16.50;99.90;;;;;;5063337;28;20437;-39
2022/09/10 07:11:06;;;;;;;10.35;8.15;;;16.50;99.90;;;;;;5063020;28;20021;-37
2022/09/10 07:13:33;;;;;;;9.60;8.48;;;16.50;99.90;;;;;;5062373;28;20354;-38
2022/09/10 07:15:59;;;;;;;9.57;8.63;;;16.50;99.90;;;;;;5062882;28;20074;-37
2022/09/10 07:18:26;;;;;;;9.30;8.35;;;16.50;99.90;;;;;;5062698;28;20032;-39
2022/09/10 07:20:51;;;;;;;8.52;6.90;;;16.50;99.90;;;;;;5061977;28;20031;-39
2022/09/10 07:23:19;;;;;;;9.18;8.23;;;16.50;99.90;;;;;;5063836;28;20029;-39
2022/09/10 07:25:46;;;;;;;9.18;8.25;;;16.50;99.90;;;;;;5065202;28;20032;-38
2022/09/10 07:28:15;;;;;;;8.80;7.93;;;16.60;99.90;;;;;;5066407;28;20081;-38
2022/09/10 07:30:42;;;;;;;10.98;8.38;;;16.60;99.90;;;;;;5066022;28;20008;-37
2022/09/10 07:33:10;;;;;;;8.88;7.95;;;16.60;99.90;;;;;;5067093;28;20028;-38
2022/09/10 07:35:36;;;;;;;9.95;8.90;;;16.60;99.90;;;;;;5065259;28;20064;-39
2022/09/10 07:38:03;;;;;;;9.88;8.45;;;16.60;99.90;;;;;;5066182;28;20079;-37
2022/09/10 07:40:30;;;;;;;12.18;10.65;;;16.60;99.90;;;;;;5066122;28;20063;-37
2022/09/10 07:42:55;;;;;;;8.32;7.50;;;16.60;99.90;;;;;;5065675;28;20654;-38
2022/09/10 07:45:21;;;;;;;9.27;8.32;;;16.70;99.90;;;;;;5066225;28;20028;-38
2022/09/10 07:47:48;;;;;;;10.23;8.02;;;16.70;99.90;;;;;;5065438;28;20024;-37
2022/09/10 07:50:14;;;;;;;9.52;7.75;;;16.70;99.90;;;;;;5066466;28;20040;-39
2022/09/10 07:52:41;;;;;;;8.50;7.72;;;16.70;99.90;;;;;;5065824;28;20190;-38
2022/09/10 07:55:07;;;;;;;8.35;7.55;;;16.80;99.90;;;;;;5065280;28;20094;-38
2022/09/10 07:57:37;;;;;;;7.70;6.90;;;16.80;99.90;;;;;;5065139;28;20434;-37
2022/09/10 08:00:13;;;;;;;8.98;8.07;;;16.80;99.90;;;;;;5066284;28;20021;-37
2022/09/10 08:02:40;;;;;;;9.65;8.40;;;16.90;99.90;;;;;;5065150;28;20483;-37
2022/09/10 08:05:07;;;;;;;9.60;7.63;;;17.00;99.90;;;;;;5066001;28;20046;-39
2022/09/10 08:07:32;;;;;;;9.77;8.77;;;17.10;99.90;;;;;;5065427;28;20120;-38
2022/09/10 08:09:58;;;;;;;8.60;7.80;;;17.20;99.90;;;;;;5065484;28;20414;-39
2022/09/10 08:12:24;;;;;;;7.15;6.45;;;17.30;99.90;;;;;;5065354;28;20044;-38
2022/09/10 08:14:51;;;;;;;8.52;7.72;;;17.30;99.90;;;;;;5065942;28;20020;-38
2022/09/10 08:17:16;;;;;;;7.78;7.07;;;17.40;99.90;;;;;;5064559;28;20491;-36
2022/09/10 08:19:42;;;;;;;8.32;7.53;;;17.50;99.90;;;;;;5065473;28;20028;-39
2022/09/10 08:22:08;;;;;;;8.55;7.75;;;17.60;99.90;;;;;;5065215;28;20539;-38
2022/09/10 08:24:33;;;;;;;8.10;7.32;;;17.70;99.90;;;;;;5064907;28;20130;-38
2022/09/10 08:26:59;;;;;;;8.77;8.00;;;17.70;99.90;;;;;;5065452;28;20027;-39
2022/09/10 08:29:24;;;;;;;8.35;7.70;;;17.80;99.90;;;;;;5065445;28;20025;-38
2022/09/10 08:31:50;;;;;;;7.40;6.70;;;17.80;99.90;;;;;;5064634;28;20020;-37
2022/09/10 08:34:15;;;;;;;7.30;6.70;;;17.90;99.90;;;;;;5065988;28;20020;-40
2022/09/10 08:36:41;;;;;;;7.38;6.63;;;17.90;99.90;;;;;;5064325;28;20024;-41
2022/09/10 08:39:07;;;;;;;6.45;5.85;;;17.90;99.90;;;;;;5064825;28;20103;-38
2022/09/10 08:41:45;;;;;;;7.50;6.80;;;18.00;99.90;;;;;;5064907;28;20020;-39
2022/09/10 08:44:27;;;;;;;8.10;7.40;;;18.00;99.90;;;;;;5065070;28;20028;-38
2022/09/10 08:47:05;;;;;;;6.80;6.20;;;18.10;99.90;;;;;;5065957;28;20028;-38
2022/09/10 08:49:42;;;;;;;8.75;7.90;;;18.20;99.90;;;;;;5064968;28;20036;-39
2022/09/10 08:52:16;;;;;;;7.97;7.28;;;18.20;99.90;;;;;;5064063;28;20618;-38
2022/09/10 08:54:53;;;;;;;7.20;6.50;;;18.40;99.90;;;;;;5064992;28;20400;-38
2022/09/10 08:57:35;;;;;;;7.57;6.97;;;18.50;99.90;;;;;;5065211;28;20415;-39
2022/09/10 09:00:02;;;;;;;7.85;7.15;;;18.60;99.90;;;;;;5064310;28;20029;-37
2022/09/10 09:02:44;;;;;;;7.35;6.70;;;18.70;99.90;;;;;;5064840;28;20025;-38
2022/09/10 09:05:17;;;;;;;7.10;6.50;;;18.80;99.90;;;;;;5063967;28;20032;-38
2022/09/10 09:07:43;;;;;;;7.65;6.95;;;18.90;99.90;;;;;;5065001;28;20025;-38
2022/09/10 09:10:40;;;;;;;7.38;6.85;;;19.00;99.90;;;;;;5064982;28;20033;-39
2022/09/10 09:13:15;;;;;;;7.20;6.60;;;19.00;99.90;;;;;;5064086;28;20029;-39
2022/09/10 09:16:02;;;;;;;6.68;6.18;;;19.00;99.90;;;;;;5063534;28;20031;-40
2022/09/10 09:18:53;;;;;;;7.00;6.40;;;18.90;99.90;;;;;;5065194;28;20047;-40
2022/09/10 09:21:35;;;;;;;8.82;8.00;;;18.90;99.90;;;;;;5063609;28;20024;-37
2022/09/10 09:24:07;;;;;;;9.50;8.70;;;18.90;99.90;;;;;;5063832;28;20028;-38
2022/09/10 09:26:36;;;;;;;7.63;7.03;;;18.80;99.90;;;;;;5052734;28;20468;-41
2022/09/10 09:29:11;;;;;;;9.52;8.63;;;18.80;99.90;;;;;;5064785;28;20032;-38
2022/09/10 09:31:43;;;;;;;8.52;7.82;;;18.70;99.90;;;;;;5067117;28;20028;-41
2022/09/10 09:34:12;;;;;;;10.45;9.65;;;18.60;99.90;;;;;;5063747;28;20016;-37
2022/09/10 09:36:44;;;;;;;7.80;7.20;;;18.50;99.90;;;;;;5064303;28;20480;-38
2022/09/10 09:39:40;;;;;;;13.52;8.38;;;18.40;99.90;;;;;;5064954;28;20051;-38
2022/09/10 09:42:32;;;;;;;6.30;5.75;;;18.20;99.90;;;;;;5053516;28;20028;-38
2022/09/10 09:45:02;;;;;;;6.47;5.95;;;17.90;99.90;;;;;;5063999;28;20024;-38
2022/09/10 09:47:27;;;;;;;6.20;5.70;;;17.80;99.90;;;;;;5063617;28;20135;-38
2022/09/10 09:49:53;;;;;;;6.30;5.82;;;17.70;99.90;;;;;;5064449;28;20429;-40
2022/09/10 09:52:23;;;;;;;5.88;5.38;;;17.80;99.90;;;;;;5064957;28;20479;-39
2022/09/10 09:54:53;;;;;;;6.57;6.07;;;17.80;99.90;;;;;;5063498;28;20040;-39
2022/09/10 09:57:19;;;;;;;7.03;6.45;;;17.70;99.90;;;;;;5064290;28;20071;-39
2022/09/10 09:59:47;;;;;;;7.20;6.60;;;17.80;99.90;;;;;;5064385;28;20431;-38
2022/09/10 10:02:24;;;;;;;6.63;6.03;;;17.80;99.90;;;;;;5064046;28;20012;-37
2022/09/10 10:05:02;;;;;;;5.90;5.50;;;17.80;99.90;;;;;;5064521;28;20112;-38
2022/09/10 10:07:30;;;;;;;5.53;5.13;;;17.90;99.90;;;;;;5061006;28;20028;-37
2022/09/10 10:09:58;;;;;;;5.50;5.03;;;17.90;99.90;;;;;;5063353;28;20036;-40
2022/09/10 10:12:23;;;;;;;6.50;5.90;;;17.90;99.90;;;;;;5063650;28;20095;-38
2022/09/10 10:14:50;;;;;;;5.25;4.85;;;17.90;99.90;;;;;;5064541;28;20104;-38
2022/09/10 10:17:36;;;;;;;5.15;4.70;;;17.90;99.90;;;;;;5063319;28;20499;-39
2022/09/10 10:20:11;;;;;;;6.15;5.65;;;17.90;99.90;;;;;;5063987;28;20033;-39
2022/09/10 10:22:38;;;;;;;5.18;4.68;;;18.00;99.90;;;;;;5063593;28;20586;-37
2022/09/10 10:25:28;;;;;;;5.03;4.63;;;18.00;99.90;;;;;;5064638;28;20028;-38
2022/09/10 10:27:54;;;;;;;4.97;4.50;;;18.10;99.90;;;;;;5063659;28;20032;-40
2022/09/10 10:30:23;;;;;;;4.47;4.18;;;18.20;99.90;;;;;;5063903;28;20070;-39
2022/09/10 10:32:57;;;;;;;4.72;4.40;;;18.30;99.90;;;;;;5063676;28;20020;-39
2022/09/10 10:35:32;;;;;;;4.18;3.88;;;18.30;99.90;;;;;;5064908;28;20033;-39
2022/09/10 10:38:11;;;;;;;4.10;3.80;;;18.30;99.90;;;;;;5063230;28;20488;-38
2022/09/10 10:40:55;;;;;;;4.03;3.72;;;18.30;99.90;;;;;;5064499;28;20025;-37
2022/09/10 10:43:47;;;;;;;4.85;4.45;;;18.30;99.90;;;;;;5064340;28;20032;-37
2022/09/10 10:46:19;;;;;;;4.93;4.43;;;18.30;99.90;;;;;;5064855;28;20028;-40
2022/09/10 10:49:15;;;;;;;6.13;5.68;;;18.40;99.90;;;;;;5063141;28;20793;-39
2022/09/10 10:52:09;;;;;;;4.93;4.55;;;18.40;99.90;;;;;;5063157;28;20024;-39
2022/09/10 10:54:43;;;;;;;5.45;4.95;;;18.40;99.90;;;;;;5053992;28;20032;-39
2022/09/10 10:57:37;;;;;;;5.50;5.00;;;18.50;99.90;;;;;;5063632;28;20503;-39
2022/09/10 11:00:13;;;;;;;6.32;5.72;;;18.60;99.90;;;;;;5057967;28;20126;-39
2022/09/10 11:03:16;;;;;;;6.88;6.18;;;18.70;99.90;;;;;;5067725;28;20025;-40
2022/09/10 11:05:50;;;;;;;6.55;6.00;;;18.60;99.90;;;;;;5067201;28;20028;-39
2022/09/10 11:08:34;;;;;;;5.00;4.60;;;18.60;99.90;;;;;;5067384;28;20060;-39
2022/09/10 11:11:12;;;;;;;6.57;6.07;;;18.60;99.90;;;;;;5067285;28;20032;-39
2022/09/10 11:14:11;;;;;;;6.90;6.30;;;18.60;99.90;;;;;;5066643;28;20043;-39
2022/09/10 11:16:42;;;;;;;5.70;5.18;;;18.50;99.90;;;;;;5046227;28;20107;-37
2022/09/10 11:19:22;;;;;;;5.55;5.07;;;18.50;99.90;;;;;;5062754;28;20723;-37
2022/09/10 11:21:57;;;;;;;4.07;3.72;;;18.50;99.90;;;;;;5046971;28;20032;-41
2022/09/10 11:24:29;;;;;;;4.20;3.80;;;18.50;99.90;;;;;;5063967;28;20115;-41
2022/09/10 11:27:19;;;;;;;3.22;3.03;;;18.50;99.90;;;;;;5047280;28;20477;-39
2022/09/10 11:30:04;;;;;;;3.25;3.03;;;18.50;99.90;;;;;;5064211;28;20120;-39
2022/09/10 11:32:33;;;;;;;2.63;2.42;;;18.60;99.90;;;;;;5067533;28;20028;-40
2022/09/10 11:35:11;;;;;;;2.25;2.13;;;18.60;99.90;;;;;;5066365;28;20030;-38
2022/09/10 11:37:55;;;;;;;2.28;2.08;;;18.70;99.90;;;;;;5067791;28;20032;-37
2022/09/10 11:40:34;;;;;;;2.10;1.92;;;18.70;99.90;;;;;;5066797;28;20024;-37
2022/09/10 11:43:06;;;;;;;2.60;2.40;;;18.80;99.90;;;;;;5067128;28;20450;-39
2022/09/10 11:45:53;;;;;;;2.30;2.10;;;18.70;99.90;;;;;;5066355;28;20358;-38
2022/09/10 11:48:52;;;;;;;2.20;2.00;;;18.70;99.90;;;;;;5066627;28;20054;-38
2022/09/10 11:51:29;;;;;;;1.73;1.63;;;18.70;99.90;;;;;;5066248;28;20094;-38
2022/09/10 11:53:55;;;;;;;2.20;2.00;;;18.70;99.90;;;;;;5066025;28;20027;-40
2022/09/10 11:56:23;;;;;;;2.17;2.03;;;18.70;99.90;;;;;;5066571;28;20049;-38
2022/09/10 11:59:12;;;;;;;1.63;1.52;;;18.70;99.90;;;;;;5066964;28;20037;-41
2022/09/10 12:02:01;;;;;;;1.42;1.33;;;18.70;99.90;;;;;;5066088;28;20024;-40
2022/09/10 12:05:09;;;;;;;1.45;1.35;;;18.80;99.90;;;;;;5066900;28;20107;-39
2022/09/10 12:07:48;;;;;;;1.75;1.65;;;18.80;99.90;;;;;;5061283;28;20396;-40
2022/09/10 12:10:16;;;;;;;1.30;1.20;;;19.00;99.90;;;;;;5066470;28;20036;-43
2022/09/10 12:12:44;;;;;;;1.60;1.50;;;19.00;99.90;;;;;;5065067;28;20027;-42
2022/09/10 12:15:25;;;;;;;1.45;1.35;;;19.10;99.90;;;;;;5066455;28;20025;-44
2022/09/10 12:18:03;;;;;;;1.30;1.20;;;19.20;99.90;;;;;;5067013;28;20424;-39
2022/09/10 12:20:36;;;;;;;1.40;1.30;;;19.30;99.90;;;;;;5066660;28;20028;-39
2022/09/10 12:23:03;;;;;;;1.17;1.17;;;19.40;99.90;;;;;;5065855;28;20017;-39
2022/09/10 12:25:31;;;;;;;1.30;1.20;;;19.40;99.90;;;;;;5066182;28;20407;-38
2022/09/10 12:28:02;;;;;;;1.63;1.10;;;19.50;99.90;;;;;;5067247;28;20036;-41
2022/09/10 12:30:28;;;;;;;1.00;1.00;;;19.50;99.90;;;;;;5065385;28;20043;-38
2022/09/10 12:32:56;;;;;;;1.17;1.10;;;19.50;99.90;;;;;;5066396;28;20051;-39
2022/09/10 12:35:31;;;;;;;1.20;1.20;;;19.50;99.90;;;;;;5066210;28;20021;-41
2022/09/10 12:38:34;;;;;;;1.38;1.27;;;19.50;99.90;;;;;;5054266;28;20035;-41
2022/09/10 12:41:08;;;;;;;1.20;1.10;;;19.50;99.90;;;;;;5066310;28;20107;-45
2022/09/10 12:43:40;;;;;;;1.25;1.15;;;19.50;99.90;;;;;;5065517;28;20047;-43
2022/09/10 12:46:08;;;;;;;0.95;0.88;;;19.60;99.90;;;;;;5065997;28;20291;-45
2022/09/10 12:48:44;;;;;;;1.40;1.30;;;19.60;99.90;;;;;;5065644;28;20097;-40
2022/09/10 12:51:16;;;;;;;1.17;1.10;;;19.70;99.90;;;;;;5065594;28;20056;-46
2022/09/10 12:53:58;;;;;;;1.80;1.10;;;19.70;99.90;;;;;;5066042;28;20122;-47
2022/09/10 12:56:45;;;;;;;1.00;1.00;;;19.70;99.90;;;;;;5065305;28;20484;-41
2022/09/10 12:59:42;;;;;;;1.20;1.08;;;19.80;99.90;;;;;;5065595;28;20430;-42
2022/09/10 13:02:27;;;;;;;1.13;1.13;;;19.80;99.90;;;;;;5065691;28;20127;-44
2022/09/10 13:04:57;;;;;;;1.05;1.05;;;19.90;99.90;;;;;;5065022;28;20029;-43